Time;durP1;ratioP1;P1;durP2;ratioP2;P2;SDS_P1;SDS_P2;PMS_P1;PMS_P2;Temp;Humidity;BMP_temperature;BMP_pressure;BME280_temperature;BME280_humidity;BME280_pressure;Samples;Min_cycle;Max_cycle;Signal;HPM_P1;HPM_P2
2022/03/15 00:00:04;;;;;;;99.88;35.05;;;0.50;51.80;;;;;;5073782;28;20112;-81
2022/03/15 00:02:29;;;;;;;107.87;37.13;;;0.50;51.90;;;;;;5073357;28;20111;-81
2022/03/15 00:04:55;;;;;;;115.57;33.70;;;0.40;52.00;;;;;;5073436;28;20060;-81
2022/03/15 00:07:22;;;;;;;;;;;0.40;52.20;;;;;;5073901;28;20021;-80
2022/03/15 00:09:47;;;;;;;60.67;18.40;;;0.40;52.20;;;;;;5073507;28;19912;-80
2022/03/15 00:12:14;;;;;;;87.25;27.10;;;0.40;51.70;;;;;;5073289;28;20020;-81
2022/03/15 00:14:40;;;;;;;89.97;28.57;;;0.40;51.90;;;;;;5073646;28;20021;-81
2022/03/15 00:17:07;;;;;;;79.30;26.50;;;0.30;52.10;;;;;;5074775;28;20032;-81
2022/03/15 00:19:33;;;;;;;74.37;26.03;;;0.30;52.30;;;;;;5073633;28;20021;-80
2022/03/15 00:21:58;;;;;;;;;;;0.30;52.50;;;;;;5073658;28;20424;-82
2022/03/15 00:24:24;;;;;;;67.57;27.10;;;0.30;52.50;;;;;;5073575;28;19919;-81
2022/03/15 00:26:50;;;;;;;;;;;0.20;52.10;;;;;;5073505;28;20059;-81
2022/03/15 00:29:17;;;;;;;81.73;29.37;;;0.20;52.20;;;;;;5073296;28;19951;-83
2022/03/15 00:31:44;;;;;;;88.37;31.80;;;0.20;51.90;;;;;;5073329;28;20024;-81
2022/03/15 00:34:11;;;;;;;88.33;30.00;;;0.10;52.30;;;;;;5067828;28;20358;-81
2022/03/15 00:36:37;;;;;;;93.70;31.43;;;0.10;52.50;;;;;;5073170;28;20066;-82
2022/03/15 00:39:04;;;;;;;86.37;30.97;;;0.00;52.80;;;;;;5073232;28;20020;-81
2022/03/15 00:41:29;;;;;;;85.50;30.40;;;0.00;53.00;;;;;;5073331;28;20024;-82
2022/03/15 00:43:55;;;;;;;86.78;31.75;;;0.00;53.20;;;;;;5072996;28;20043;-81
2022/03/15 00:46:20;;;;;;;88.15;30.75;;;0.00;53.30;;;;;;5089956;28;20029;-81
2022/03/15 00:48:46;;;;;;;86.40;29.60;;;0.00;53.40;;;;;;5072962;28;20358;-81
2022/03/15 00:51:11;;;;;;;87.00;28.98;;;0.00;53.50;;;;;;5074181;28;20028;-81
2022/03/15 00:53:37;;;;;;;83.95;29.50;;;-3276.70;53.50;;;;;;5072608;28;20035;-82
2022/03/15 00:56:03;;;;;;;81.82;29.30;;;-3276.70;53.60;;;;;;5071984;28;20027;-82
2022/03/15 00:58:28;;;;;;;73.35;27.63;;;-3276.70;53.80;;;;;;5072558;28;20031;-82
2022/03/15 01:00:54;;;;;;;87.95;29.25;;;-3276.70;53.90;;;;;;5073265;28;20029;-82
2022/03/15 01:03:20;;;;;;;99.53;36.10;;;-3276.70;53.90;;;;;;5072250;28;20473;-82
2022/03/15 01:05:45;;;;;;;87.07;32.85;;;-3276.70;54.00;;;;;;5072469;28;20032;-82
2022/03/15 01:08:11;;;;;;;81.60;29.00;;;-3276.70;54.10;;;;;;5073492;28;20063;-82
2022/03/15 01:10:36;;;;;;;73.10;26.60;;;-3276.70;54.10;;;;;;5072287;28;20409;-80
2022/03/15 01:13:02;;;;;;;69.82;25.48;;;-3276.70;54.20;;;;;;5072717;28;20028;-82
2022/03/15 01:15:29;;;;;;;72.18;25.45;;;-3276.60;54.30;;;;;;5072205;28;20440;-81
2022/03/15 01:17:54;;;;;;;67.27;27.07;;;-3276.60;54.50;;;;;;5071839;28;20397;-82
2022/03/15 01:20:20;;;;;;;66.10;25.42;;;-3276.60;54.70;;;;;;5072100;28;20028;-80
2022/03/15 01:22:46;;;;;;;70.55;25.20;;;-3276.60;54.80;;;;;;5088528;28;20020;-81
2022/03/15 01:25:12;;;;;;;70.97;25.60;;;-3276.60;54.90;;;;;;5071823;28;20032;-81
2022/03/15 01:27:37;;;;;;;68.75;25.50;;;-3276.50;54.90;;;;;;5071772;28;20032;-81
2022/03/15 01:30:05;;;;;;;64.13;26.35;;;-3276.60;55.10;;;;;;5071932;28;20371;-83
2022/03/15 01:32:31;;;;;;;63.53;24.73;;;-3276.60;55.20;;;;;;5072078;28;20055;-82
2022/03/15 01:34:56;;;;;;;65.53;24.75;;;-3276.50;55.20;;;;;;5073187;28;20105;-82
2022/03/15 01:37:22;;;;;;;52.78;23.00;;;-3276.50;55.30;;;;;;5073124;28;20024;-82
2022/03/15 01:39:47;;;;;;;59.58;22.73;;;-3276.50;55.30;;;;;;5071637;28;20013;-81
2022/03/15 01:42:13;;;;;;;61.20;25.80;;;-3276.50;55.20;;;;;;5072565;28;20051;-81
2022/03/15 01:44:45;;;;;;;59.03;24.90;;;-3276.50;55.30;;;;;;5071476;28;20443;-82
2022/03/15 01:47:11;;;;;;;71.80;25.33;;;-3276.50;55.40;;;;;;5071705;28;20423;-82
2022/03/15 01:49:36;;;;;;;68.50;23.73;;;-3276.40;55.40;;;;;;5071801;28;20016;-81
2022/03/15 01:52:02;;;;;;;69.60;23.92;;;-3276.40;55.50;;;;;;5072100;28;20034;-81
2022/03/15 01:54:28;;;;;;;63.38;22.15;;;-3276.40;55.40;;;;;;5071673;28;20069;-81
2022/03/15 01:56:53;;;;;;;57.78;22.35;;;-3276.40;55.40;;;;;;5071842;28;20412;-81
2022/03/15 01:59:19;;;;;;;58.30;22.80;;;-3276.40;55.50;;;;;;5071735;28;20044;-82
2022/03/15 02:01:46;;;;;;;55.75;23.38;;;-3276.40;55.50;;;;;;5071710;28;20017;-81
2022/03/15 02:04:15;;;;;;;59.47;23.23;;;-3276.40;55.50;;;;;;5072079;28;20043;-81
2022/03/15 02:06:42;;;;;;;57.63;22.90;;;-3276.30;55.50;;;;;;5073217;28;20036;-81
2022/03/15 02:09:15;;;;;;;58.00;22.40;;;-3276.30;55.60;;;;;;5075848;28;20046;-81
2022/03/15 02:11:42;;;;;;;60.17;22.23;;;-3276.30;55.70;;;;;;5076012;28;20104;-82
2022/03/15 02:14:08;;;;;;;61.23;23.23;;;-3276.30;55.70;;;;;;5075747;28;20017;-82
2022/03/15 02:16:34;;;;;;;63.10;23.77;;;-3276.30;55.80;;;;;;5076666;28;20041;-82
2022/03/15 02:19:01;;;;;;;57.63;21.55;;;-3276.30;55.90;;;;;;5076742;28;20078;-82
2022/03/15 02:21:28;;;;;;;58.40;22.97;;;-3276.30;55.90;;;;;;5075572;28;20033;-82
2022/03/15 02:23:54;;;;;;;65.10;23.80;;;-3276.30;56.00;;;;;;5075239;28;20044;-81
2022/03/15 02:26:19;;;;;;;;;;;-3276.30;56.10;;;;;;5075857;28;20036;-81
2022/03/15 02:28:45;;;;;;;52.17;19.83;;;-3276.30;56.10;;;;;;5075233;28;19930;-82
2022/03/15 02:31:11;;;;;;;57.30;21.45;;;-3276.30;55.60;;;;;;5075118;28;20058;-82
2022/03/15 02:33:36;;;;;;;58.67;21.63;;;-3276.20;55.80;;;;;;5075376;28;20024;-82
2022/03/15 02:36:02;;;;;;;52.92;22.02;;;-3276.20;55.90;;;;;;5076477;28;20097;-82
2022/03/15 02:38:28;;;;;;;;;;;-3276.30;56.10;;;;;;5075280;28;20020;-82
2022/03/15 02:41:00;;;;;;;48.83;19.83;;;-3276.20;56.10;;;;;;5074926;28;19915;-81
2022/03/15 02:43:25;;;;;;;50.63;20.53;;;-3276.20;55.80;;;;;;5074980;28;20417;-82
2022/03/15 02:45:51;;;;;;;55.08;21.45;;;-3276.10;55.90;;;;;;5074937;28;20131;-82
2022/03/15 02:48:17;;;;;;;56.72;21.55;;;-3276.10;56.10;;;;;;5074855;28;20354;-82
2022/03/15 02:50:42;;;;;;;59.85;20.30;;;-3276.10;56.20;;;;;;5076093;28;20028;-82
2022/03/15 02:53:08;;;;;;;66.82;22.95;;;-3276.10;56.30;;;;;;5076270;28;20025;-82
2022/03/15 02:55:34;;;;;;;57.22;22.08;;;-3276.00;56.30;;;;;;5074785;28;20020;-82
2022/03/15 02:58:00;;;;;;;62.73;22.80;;;-3276.00;56.40;;;;;;5075803;28;20025;-81
2022/03/15 03:00:27;;;;;;;54.87;21.37;;;-3276.00;56.50;;;;;;5074680;28;20025;-82
2022/03/15 03:02:53;;;;;;;55.33;20.40;;;-3276.00;56.60;;;;;;5076115;28;20029;-81
2022/03/15 03:05:19;;;;;;;55.60;21.80;;;-3275.90;56.70;;;;;;5074300;28;20504;-81
2022/03/15 03:07:45;;;;;;;54.67;22.98;;;-3276.00;56.90;;;;;;5074527;28;20012;-83
2022/03/15 03:10:12;;;;;;;53.85;21.80;;;-3275.90;56.90;;;;;;5074319;28;20021;-82
2022/03/15 03:12:41;;;;;;;56.43;22.90;;;-3275.90;57.00;;;;;;5074842;28;20430;-81
2022/03/15 03:15:12;;;;;;;60.27;23.00;;;-3275.90;57.00;;;;;;5074403;28;20086;-82
2022/03/15 03:17:40;;;;;;;59.73;21.90;;;-3275.90;57.20;;;;;;5074251;28;20056;-81
2022/03/15 03:20:11;;;;;;;52.77;23.60;;;-3275.90;57.20;;;;;;5076106;28;20116;-81
2022/03/15 03:22:37;;;;;;;57.33;20.87;;;-3275.90;57.30;;;;;;5068988;28;20445;-82
2022/03/15 03:25:04;;;;;;;56.20;21.92;;;-3275.90;57.30;;;;;;5074274;28;20052;-81
2022/03/15 03:27:30;;;;;;;58.13;21.70;;;-3275.80;57.40;;;;;;5074476;28;20059;-81
2022/03/15 03:29:58;;;;;;;62.15;22.05;;;-3275.90;57.50;;;;;;5074643;28;20381;-82
2022/03/15 03:32:25;;;;;;;56.63;22.03;;;-3276.00;57.50;;;;;;5075733;28;20031;-82
2022/03/15 03:34:51;;;;;;;63.33;21.57;;;-3276.00;57.40;;;;;;5074389;28;20028;-81
2022/03/15 03:37:17;;;;;;;68.67;23.17;;;-3276.10;57.40;;;;;;5074334;28;20485;-81
2022/03/15 03:39:42;;;;;;;51.55;21.25;;;-3276.10;57.40;;;;;;5075510;28;20017;-81
2022/03/15 03:42:09;;;;;;;60.22;23.00;;;-3276.00;57.50;;;;;;5075286;28;20047;-81
2022/03/15 03:44:35;;;;;;;69.37;24.47;;;-3276.00;57.50;;;;;;5073788;28;20021;-82
2022/03/15 03:47:02;;;;;;;71.33;27.63;;;-3276.00;57.60;;;;;;5073945;28;20063;-80
2022/03/15 03:49:29;;;;;;;75.20;27.83;;;-3275.90;57.70;;;;;;5073669;28;20025;-81
2022/03/15 03:51:55;;;;;;;78.53;28.67;;;-3275.90;57.80;;;;;;5073911;28;20023;-82
2022/03/15 03:54:21;;;;;;;76.40;28.02;;;-3275.90;58.00;;;;;;5074190;28;20400;-81
2022/03/15 03:56:46;;;;;;;74.10;28.95;;;-3275.90;58.10;;;;;;5073826;28;20028;-82
2022/03/15 03:59:12;;;;;;;83.85;29.30;;;-3275.90;58.10;;;;;;5074893;28;20108;-80
2022/03/15 04:01:39;;;;;;;85.95;31.40;;;-3275.90;58.10;;;;;;5073433;28;20085;-82
2022/03/15 04:04:06;;;;;;;81.93;29.33;;;-3275.90;58.10;;;;;;5073554;28;20047;-82
2022/03/15 04:06:32;;;;;;;87.53;31.03;;;-3275.80;58.20;;;;;;5073428;28;20158;-83
2022/03/15 04:08:59;;;;;;;80.07;30.90;;;-3275.80;58.30;;;;;;5073186;28;20017;-82
2022/03/15 04:11:25;;;;;;;83.80;29.50;;;-3275.80;58.50;;;;;;5073724;28;20021;-82
2022/03/15 04:13:51;;;;;;;77.82;31.08;;;-3275.80;58.60;;;;;;5073181;28;20359;-82
2022/03/15 04:16:17;;;;;;;;;;;-3275.80;58.70;;;;;;5073341;28;20388;-81
2022/03/15 04:18:42;;;;;;;77.13;27.47;;;-3275.80;58.60;;;;;;5073209;28;19908;-82
2022/03/15 04:21:08;;;;;;;69.10;26.30;;;-3275.70;58.20;;;;;;5074374;28;20047;-82
2022/03/15 04:23:33;;;;;;;78.43;27.75;;;-3275.70;58.40;;;;;;5072979;28;20371;-82
2022/03/15 04:25:59;;;;;;;66.13;26.95;;;-3275.70;58.50;;;;;;5073319;28;20426;-82
2022/03/15 04:28:25;;;;;;;63.78;26.95;;;-3275.70;58.60;;;;;;5073208;28;20052;-82
2022/03/15 04:30:50;;;;;;;78.93;26.30;;;-3275.60;58.70;;;;;;5073710;28;20028;-82
2022/03/15 04:33:16;;;;;;;65.05;25.73;;;-3275.60;58.80;;;;;;5072940;28;20029;-82
2022/03/15 04:35:42;;;;;;;66.50;26.23;;;-3275.60;58.90;;;;;;5073260;28;20062;-81
2022/03/15 04:38:07;;;;;;;;;;;-3275.60;58.90;;;;;;5074639;28;20036;-81
2022/03/15 04:40:33;;;;;;;70.40;25.40;;;-3275.60;58.90;;;;;;5073267;28;19953;-82
2022/03/15 04:43:01;;;;;;;61.78;25.88;;;-3275.60;58.60;;;;;;5073121;28;20496;-81
2022/03/15 04:45:27;;;;;;;67.67;25.93;;;-3275.50;58.70;;;;;;5072948;28;20027;-82
2022/03/15 04:47:53;;;;;;;73.05;26.48;;;-3275.40;58.90;;;;;;5072899;28;20013;-80
2022/03/15 04:50:18;;;;;;;82.43;28.80;;;-3275.40;59.00;;;;;;5072542;28;20031;-81
2022/03/15 04:52:44;;;;;;;80.47;27.67;;;-3275.40;59.10;;;;;;5072964;28;20027;-82
2022/03/15 04:55:09;;;;;;;79.35;27.17;;;-3275.40;59.20;;;;;;5072767;28;20036;-82
2022/03/15 04:57:35;;;;;;;74.75;27.42;;;-3275.50;59.30;;;;;;5072556;28;20488;-82
2022/03/15 05:00:09;;;;;;;69.25;27.23;;;-3275.40;59.30;;;;;;5072870;28;20071;-82
2022/03/15 05:02:43;;;;;;;67.37;27.10;;;-3275.40;59.40;;;;;;5072784;28;20029;-81
2022/03/15 05:05:08;;;;;;;69.93;28.40;;;-3275.40;59.40;;;;;;5072555;28;20028;-81
2022/03/15 05:07:35;;;;;;;82.35;29.85;;;-3275.50;59.50;;;;;;5073571;28;20119;-82
2022/03/15 05:12:45;;;;;;;76.23;29.43;;;-3275.40;59.60;;;;;;5068253;28;20047;-81
2022/03/15 05:15:11;;;;;;;86.80;30.47;;;-3275.40;59.50;;;;;;5072175;28;20024;-82
2022/03/15 05:17:37;;;;;;;74.13;29.20;;;-3275.50;59.60;;;;;;5071985;28;20082;-82
2022/03/15 05:20:05;;;;;;;70.03;28.00;;;-3275.40;59.70;;;;;;5072357;28;20027;-82
2022/03/15 05:22:32;;;;;;;79.90;28.53;;;-3275.40;59.70;;;;;;5071876;28;20031;-82
2022/03/15 05:24:58;;;;;;;78.47;28.30;;;-3275.50;59.80;;;;;;5071765;28;20089;-81
2022/03/15 05:27:24;;;;;;;73.80;28.60;;;-3275.50;59.90;;;;;;5072604;28;20021;-81
2022/03/15 05:29:50;;;;;;;72.67;27.10;;;-3275.50;59.90;;;;;;5072079;28;20020;-82
2022/03/15 05:32:16;;;;;;;66.85;27.35;;;-3275.60;59.90;;;;;;5073375;28;20009;-81
2022/03/15 05:34:41;;;;;;;61.45;27.08;;;-3275.50;59.90;;;;;;5083354;28;20031;-81
2022/03/15 05:37:08;;;;;;;81.72;27.52;;;-3275.60;60.00;;;;;;5089338;28;20111;-82
2022/03/15 05:39:34;;;;;;;79.37;27.60;;;-3275.70;60.00;;;;;;5074410;28;20512;-83
2022/03/15 05:42:00;;;;;;;75.57;27.93;;;-3275.70;60.10;;;;;;5072507;28;20115;-81
2022/03/15 05:44:26;;;;;;;;;;;-3275.70;60.10;;;;;;5074702;28;20074;-82
2022/03/15 05:46:52;;;;;;;74.47;25.63;;;-3275.80;60.10;;;;;;5073423;28;20323;-81
2022/03/15 05:49:18;;;;;;;71.20;26.10;;;-3275.90;59.60;;;;;;5075459;28;20028;-82
2022/03/15 05:51:43;;;;;;;;;;;-3275.90;59.80;;;;;;5073019;28;20029;-81
2022/03/15 05:54:09;;;;;;;72.60;25.73;;;-3276.00;59.80;;;;;;5071523;28;19913;-81
2022/03/15 05:56:35;;;;;;;71.00;26.38;;;-3276.00;59.40;;;;;;5071527;28;20032;-82
2022/03/15 05:59:01;;;;;;;;;;;-3276.10;59.50;;;;;;5072019;28;20028;-82
2022/03/15 06:01:27;;;;;;;69.87;26.07;;;-3276.20;59.60;;;;;;5071618;28;19957;-80
2022/03/15 06:03:53;;;;;;;68.22;26.80;;;-3276.20;59.20;;;;;;5071104;28;20020;-85
2022/03/15 06:06:21;;;;;;;74.10;29.10;;;-3276.30;59.30;;;;;;5071097;28;20028;-83
2022/03/15 06:08:48;;;;;;;79.63;28.83;;;-3276.30;59.40;;;;;;5071278;28;20029;-82
2022/03/15 06:11:15;;;;;;;78.80;29.13;;;-3276.50;59.60;;;;;;5070960;28;20039;-82
2022/03/15 06:13:40;;;;;;;84.33;32.23;;;-3276.60;59.70;;;;;;5071362;28;20559;-82
2022/03/15 06:16:06;;;;;;;87.65;33.60;;;-3276.70;59.70;;;;;;5071301;28;20096;-83
2022/03/15 06:18:31;;;;;;;92.60;36.60;;;0.00;59.70;;;;;;5073124;28;20033;-83
2022/03/15 06:20:57;;;;;;;90.07;33.55;;;0.00;59.60;;;;;;5072691;28;20517;-83
2022/03/15 06:23:23;;;;;;;97.03;34.30;;;0.20;59.60;;;;;;5070992;28;20516;-83
2022/03/15 06:25:49;;;;;;;90.77;35.07;;;0.30;59.50;;;;;;5071158;28;20048;-83
2022/03/15 06:28:15;;;;;;;97.03;34.75;;;0.50;59.40;;;;;;5072130;28;20074;-83
2022/03/15 06:30:41;;;;;;;93.75;34.03;;;0.60;59.30;;;;;;5071198;28;20059;-83
2022/03/15 06:33:06;;;;;;;;;;;0.80;59.20;;;;;;5071316;28;20032;-83
2022/03/15 06:35:33;;;;;;;84.07;30.97;;;1.00;59.10;;;;;;5070911;28;20222;-82
2022/03/15 06:37:59;;;;;;;80.67;30.57;;;1.20;58.50;;;;;;5070763;28;20401;-81
2022/03/15 06:40:26;;;;;;;79.70;32.77;;;1.30;58.40;;;;;;5070655;28;20020;-83
2022/03/15 06:42:55;;;;;;;83.27;30.57;;;1.50;58.40;;;;;;5071983;28;20104;-83
2022/03/15 06:45:22;;;;;;;81.00;30.40;;;1.70;58.40;;;;;;5071372;28;20385;-82
2022/03/15 06:47:48;;;;;;;75.27;29.63;;;1.80;58.30;;;;;;5071115;28;20021;-83
2022/03/15 06:50:14;;;;;;;72.40;28.60;;;2.00;58.30;;;;;;5070300;28;20030;-83
2022/03/15 06:52:42;;;;;;;68.53;27.55;;;2.20;58.20;;;;;;5072701;28;20497;-82
2022/03/15 06:55:09;;;;;;;65.10;27.17;;;2.40;58.10;;;;;;5078812;28;20389;-83
2022/03/15 06:57:35;;;;;;;66.03;27.07;;;2.50;57.90;;;;;;5074534;28;20024;-84
2022/03/15 07:00:03;;;;;;;64.95;25.63;;;2.80;57.80;;;;;;5074903;28;20020;-83
2022/03/15 07:02:29;;;;;;;76.40;28.00;;;2.90;57.70;;;;;;5073424;28;20031;-83
2022/03/15 07:04:54;;;;;;;58.80;25.27;;;3.10;57.50;;;;;;5074531;28;20020;-82
2022/03/15 07:07:20;;;;;;;65.13;25.70;;;3.30;57.40;;;;;;5073966;28;20028;-83
2022/03/15 07:09:46;;;;;;;58.30;23.60;;;3.40;57.20;;;;;;5074250;28;20027;-81
2022/03/15 07:12:12;;;;;;;64.50;25.25;;;3.60;57.00;;;;;;5075476;28;20020;-82
2022/03/15 07:14:38;;;;;;;63.28;24.17;;;3.80;56.70;;;;;;5074535;28;20439;-88
2022/03/15 07:17:04;;;;;;;55.83;23.37;;;3.90;56.50;;;;;;5077791;28;20381;-90
2022/03/15 07:19:29;;;;;;;57.80;22.80;;;4.10;56.20;;;;;;5077348;28;20119;-90
2022/03/15 07:21:55;;;;;;;57.35;23.48;;;4.30;55.90;;;;;;5097330;28;20028;-91
2022/03/15 07:24:21;;;;;;;57.00;23.60;;;4.40;55.50;;;;;;5078051;28;20040;-89
2022/03/15 07:26:47;;;;;;;63.90;22.98;;;4.70;55.10;;;;;;5081103;28;20162;-90
2022/03/15 07:29:12;;;;;;;55.17;21.63;;;4.80;54.80;;;;;;5079360;28;20021;-90
2022/03/15 07:31:38;;;;;;;50.65;20.10;;;5.00;54.40;;;;;;5080738;28;20020;-91
2022/03/15 07:34:03;;;;;;;53.60;20.27;;;5.30;54.00;;;;;;5077511;28;20029;-90
2022/03/15 07:36:29;;;;;;;38.92;16.88;;;5.40;53.40;;;;;;5078015;28;20024;-89
2022/03/15 07:38:55;;;;;;;45.58;18.08;;;5.60;52.30;;;;;;5079921;28;20035;-92
2022/03/15 07:41:23;;;;;;;48.17;18.73;;;5.80;51.70;;;;;;5076429;28;20072;-89
2022/03/15 07:43:49;;;;;;;58.00;21.73;;;6.00;51.10;;;;;;5074992;28;20046;-88
2022/03/15 07:46:15;;;;;;;61.13;23.07;;;6.20;50.90;;;;;;5076842;28;20055;-89
2022/03/15 07:48:41;;;;;;;48.17;22.20;;;6.30;50.80;;;;;;5077191;28;20416;-88
2022/03/15 07:51:06;;;;;;;49.65;22.65;;;6.50;50.80;;;;;;5079051;28;20511;-89
2022/03/15 07:53:32;;;;;;;50.08;21.55;;;6.70;50.50;;;;;;5078930;28;20029;-90
2022/03/15 07:56:00;;;;;;;45.38;19.35;;;6.90;50.20;;;;;;5077621;28;20028;-88
2022/03/15 07:58:26;;;;;;;46.77;20.73;;;7.10;49.50;;;;;;5093844;28;20046;-90
2022/03/15 08:00:54;;;;;;;46.55;19.85;;;7.30;48.90;;;;;;5077305;28;20104;-90
2022/03/15 08:03:22;;;;;;;39.73;15.30;;;7.40;48.40;;;;;;5078141;28;20461;-90
2022/03/15 08:05:47;;;;;;;33.87;15.63;;;7.60;47.20;;;;;;5078829;28;20033;-89
2022/03/15 08:08:15;;;;;;;44.72;18.73;;;7.80;45.90;;;;;;5077348;28;20082;-89
2022/03/15 08:10:41;;;;;;;32.90;14.93;;;7.90;45.10;;;;;;5076397;28;20024;-89
2022/03/15 08:13:07;;;;;;;35.38;15.48;;;8.10;44.70;;;;;;5078075;28;20013;-89
2022/03/15 08:15:33;;;;;;;38.60;16.83;;;8.20;44.20;;;;;;5082381;28;20477;-89
2022/03/15 08:17:58;;;;;;;43.10;17.20;;;8.30;43.90;;;;;;5074972;28;20028;-91
2022/03/15 08:20:27;;;;;;;38.80;16.65;;;8.50;43.60;;;;;;5076185;28;20035;-89
2022/03/15 08:22:54;;;;;;;36.20;16.80;;;8.60;43.10;;;;;;5075120;28;20473;-89
2022/03/15 08:25:20;;;;;;;41.20;17.20;;;8.80;42.80;;;;;;5075485;28;20033;-89
2022/03/15 08:27:45;;;;;;;35.15;17.08;;;8.90;42.20;;;;;;5075656;28;20027;-89
2022/03/15 08:30:25;;;;;;;41.90;17.33;;;9.10;41.80;;;;;;5118206;27;20443;-89
2022/03/15 08:32:50;;;;;;;43.30;17.98;;;9.20;41.60;;;;;;5084470;28;20024;-90
2022/03/15 08:35:16;;;;;;;40.67;18.15;;;9.30;41.40;;;;;;5081516;28;20064;-90
2022/03/15 08:37:50;;;;;;;36.08;17.83;;;9.50;41.20;;;;;;5081017;28;20024;-90
2022/03/15 08:40:23;;;;;;;41.67;18.00;;;9.60;40.90;;;;;;5078740;28;20090;-90
2022/03/15 08:42:49;;;;;;;39.27;18.47;;;9.80;40.60;;;;;;5073758;28;20020;-90
2022/03/15 08:45:15;;;;;;;37.97;17.88;;;9.90;40.40;;;;;;5085144;28;20086;-90
2022/03/15 08:47:41;;;;;;;47.00;18.70;;;10.10;40.10;;;;;;5080548;28;20470;-90
2022/03/15 08:50:13;;;;;;;43.35;19.58;;;10.20;39.70;;;;;;5075956;28;20033;-89
2022/03/15 08:52:39;;;;;;;38.73;18.93;;;10.40;39.50;;;;;;5078988;28;20024;-88
2022/03/15 08:55:05;;;;;;;70.47;29.20;;;10.60;39.30;;;;;;5079512;28;20017;-89
2022/03/15 08:57:31;;;;;;;36.13;18.88;;;10.80;39.10;;;;;;5081682;28;20049;-89
2022/03/15 08:59:58;;;;;;;40.13;17.83;;;10.80;38.50;;;;;;5078888;28;20086;-90
2022/03/15 09:02:24;;;;;;;41.00;19.33;;;11.10;38.40;;;;;;5076100;28;20054;-90
2022/03/15 09:04:52;;;;;;;37.28;17.92;;;11.20;38.10;;;;;;5080374;28;20024;-90
2022/03/15 09:07:18;;;;;;;38.08;17.75;;;11.30;37.90;;;;;;5078737;28;20041;-88
2022/03/15 09:09:43;;;;;;;40.75;19.55;;;11.50;37.70;;;;;;5078561;28;20039;-90
2022/03/15 09:12:09;;;;;;;39.40;16.95;;;11.70;37.60;;;;;;5082714;28;20024;-88
2022/03/15 09:14:35;;;;;;;;;;;11.80;37.10;;;;;;5079947;28;20024;-89
2022/03/15 09:17:01;;;;;;;30.73;15.75;;;11.90;37.30;;;;;;5083106;28;19958;-89
2022/03/15 09:19:27;;;;;;;34.50;15.45;;;12.00;36.90;;;;;;5077549;28;20031;-89
2022/03/15 09:21:52;;;;;;;;;;;12.10;36.70;;;;;;5083131;28;20013;-90
2022/03/15 09:24:23;;;;;;;30.45;14.30;;;12.20;36.90;;;;;;5082386;28;19908;-91
2022/03/15 09:26:48;;;;;;;28.17;14.75;;;12.30;36.60;;;;;;5082191;28;20008;-90
2022/03/15 09:29:14;;;;;;;;;;;12.50;36.40;;;;;;5086140;28;20049;-90
2022/03/15 09:31:40;;;;;;;26.63;13.65;;;12.50;36.60;;;;;;5081993;28;19912;-90
2022/03/15 09:34:06;;;;;;;;;;;12.70;36.20;;;;;;5084346;28;20028;-89
2022/03/15 09:36:32;;;;;;;27.75;12.95;;;12.80;35.90;;;;;;5081494;28;19983;-89
2022/03/15 09:38:57;;;;;;;;;;;12.90;35.00;;;;;;5081425;28;20096;-89
2022/03/15 09:41:26;;;;;;;31.17;14.52;;;12.90;35.30;;;;;;5068613;28;20288;-89
2022/03/15 09:43:55;;;;;;;35.58;15.43;;;13.00;34.80;;;;;;5067456;28;20060;-90
2022/03/15 09:46:22;;;;;;;31.95;15.88;;;13.10;34.70;;;;;;5069995;28;20035;-90
2022/03/15 09:48:53;;;;;;;35.28;16.98;;;13.20;34.70;;;;;;5066870;28;20108;-90
2022/03/15 09:51:23;;;;;;;27.35;14.60;;;13.30;34.50;;;;;;5060553;28;20028;-90
2022/03/15 09:53:50;;;;;;;28.98;15.45;;;13.40;34.40;;;;;;5067591;28;20037;-89
2022/03/15 09:56:16;;;;;;;31.38;16.25;;;13.60;34.20;;;;;;5065852;28;20390;-89
2022/03/15 09:58:42;;;;;;;31.00;16.58;;;13.80;34.00;;;;;;5065308;28;20033;-89
2022/03/15 10:01:13;;;;;;;;;;;14.00;33.80;;;;;;5051981;28;20036;-90
2022/03/15 10:03:39;;;;;;;29.33;14.13;;;14.30;34.00;;;;;;5063847;28;19916;-90
2022/03/15 10:06:04;;;;;;;;;;;14.60;33.50;;;;;;5065776;28;20385;-88
2022/03/15 10:08:30;;;;;;;27.85;12.93;;;14.80;33.60;;;;;;5067312;28;19913;-90
2022/03/15 10:10:56;;;;;;;;;;;15.00;33.30;;;;;;5062243;28;20024;-87
2022/03/15 10:13:23;;;;;;;25.60;13.33;;;15.30;33.40;;;;;;5069160;28;19920;-88
2022/03/15 10:15:59;;;;;;;25.25;12.80;;;15.50;32.90;;;;;;5068517;28;20088;-89
2022/03/15 10:18:25;;;;;;;23.42;11.60;;;15.60;32.20;;;;;;5064890;28;20086;-89
2022/03/15 10:20:51;;;;;;;24.38;12.07;;;15.90;31.90;;;;;;5062451;28;20052;-89
2022/03/15 10:23:19;;;;;;;;;;;16.50;31.30;;;;;;5068600;28;20490;-90
2022/03/15 10:26:09;;;;;;;24.75;13.02;;;17.30;30.90;;;;;;5063010;28;19909;-89
2022/03/15 10:28:36;;;;;;;23.05;11.85;;;18.50;29.40;;;;;;5065746;28;20070;-88
2022/03/15 10:31:05;;;;;;;21.95;11.52;;;19.70;28.20;;;;;;5064744;28;20466;-89
2022/03/15 10:33:33;;;;;;;27.52;13.35;;;21.00;27.20;;;;;;5066379;28;20367;-88
2022/03/15 10:35:59;;;;;;;18.05;10.75;;;22.40;26.00;;;;;;5062142;28;20025;-88
2022/03/15 10:38:24;;;;;;;20.55;10.35;;;23.60;24.60;;;;;;5066312;28;20032;-89
2022/03/15 10:40:52;;;;;;;22.90;10.43;;;24.30;23.90;;;;;;5066330;28;20046;-88
2022/03/15 10:43:23;;;;;;;16.77;9.70;;;24.80;23.40;;;;;;5067608;28;20111;-89
2022/03/15 10:45:56;;;;;;;19.45;12.80;;;25.50;23.00;;;;;;5065290;28;20109;-88
2022/03/15 10:48:24;;;;;;;19.77;11.07;;;26.20;22.40;;;;;;5064134;28;20029;-89
2022/03/15 10:50:57;;;;;;;13.98;9.20;;;27.10;21.60;;;;;;5063145;28;20045;-89
2022/03/15 10:54:03;;;;;;;16.02;10.27;;;27.70;21.10;;;;;;5061606;28;20078;-87
2022/03/15 10:56:29;;;;;;;16.98;11.48;;;28.10;20.50;;;;;;5027069;28;20035;-88
2022/03/15 10:59:04;;;;;;;16.60;10.15;;;28.30;20.30;;;;;;5064595;28;20025;-89
2022/03/15 11:01:38;;;;;;;14.38;9.38;;;28.40;19.70;;;;;;5065742;28;20154;-89
2022/03/15 11:04:06;;;;;;;15.85;8.55;;;28.80;19.70;;;;;;5062683;28;20024;-89
2022/03/15 11:06:37;;;;;;;18.20;8.63;;;29.30;19.60;;;;;;5063756;28;20013;-89
2022/03/15 11:09:25;;;;;;;15.57;8.90;;;29.70;19.30;;;;;;5060777;28;20052;-89
2022/03/15 11:12:00;;;;;;;16.33;9.63;;;30.10;18.70;;;;;;5064256;28;20009;-89
2022/03/15 11:14:40;;;;;;;;;;;30.60;18.50;;;;;;5062953;28;20041;-89
2022/03/15 11:17:13;;;;;;;15.18;10.60;;;31.00;18.20;;;;;;5064718;28;19904;-88
2022/03/15 11:19:53;;;;;;;14.63;9.52;;;30.80;17.70;;;;;;5065317;28;20025;-88
2022/03/15 11:22:22;;;;;;;21.30;12.30;;;30.90;17.70;;;;;;5066354;28;20009;-89
2022/03/15 11:25:08;;;;;;;16.38;10.60;;;31.40;17.50;;;;;;5062481;28;20052;-89
2022/03/15 11:27:43;;;;;;;16.67;10.50;;;31.90;17.10;;;;;;5065308;28;20048;-88
2022/03/15 11:30:11;;;;;;;15.40;9.43;;;32.10;16.60;;;;;;5066363;28;20091;-89
2022/03/15 11:32:37;;;;;;;14.75;10.30;;;32.40;16.50;;;;;;5068033;28;20381;-87
2022/03/15 11:35:06;;;;;;;15.35;10.35;;;32.80;16.30;;;;;;5063455;28;20027;-88
2022/03/15 11:37:32;;;;;;;17.77;11.27;;;33.10;16.00;;;;;;5069413;28;20017;-88
2022/03/15 11:39:58;;;;;;;16.10;9.90;;;33.00;15.90;;;;;;5066914;28;20025;-89
2022/03/15 11:42:27;;;;;;;18.38;10.55;;;32.70;15.70;;;;;;5061907;28;20036;-89
2022/03/15 11:45:11;;;;;;;14.18;11.02;;;32.50;15.80;;;;;;5064421;28;20017;-89
2022/03/15 11:48:11;;;;;;;14.93;10.27;;;32.80;15.80;;;;;;5058297;28;20486;-89
2022/03/15 11:51:04;;;;;;;17.13;10.02;;;33.20;15.90;;;;;;5068209;28;20473;-87
2022/03/15 11:54:11;;;;;;;13.98;9.98;;;33.50;15.90;;;;;;5062188;28;20140;-88
2022/03/15 11:57:02;;;;;;;15.13;9.45;;;34.20;15.60;;;;;;5060747;28;20021;-89
2022/03/15 11:59:53;;;;;;;18.05;11.23;;;34.70;15.20;;;;;;5059510;28;20029;-89
2022/03/15 12:02:47;;;;;;;16.70;11.82;;;34.80;14.90;;;;;;5058197;28;20482;-89
2022/03/15 12:05:17;;;;;;;16.23;8.98;;;34.70;14.90;;;;;;5056169;28;20020;-88
2022/03/15 12:07:46;;;;;;;14.43;8.40;;;34.60;15.00;;;;;;5103951;28;20491;-88
2022/03/15 12:10:22;;;;;;;15.02;8.02;;;34.50;14.80;;;;;;5062652;28;20444;-89
2022/03/15 12:13:02;;;;;;;12.45;8.35;;;34.40;14.90;;;;;;5062732;28;20021;-88
2022/03/15 12:15:39;;;;;;;14.10;9.02;;;34.50;14.80;;;;;;5062173;28;20020;-84
2022/03/15 12:21:07;;;;;;;13.15;9.18;;;34.50;14.60;;;;;;5061396;28;20040;-85
2022/03/15 12:23:45;;;;;;;11.48;8.20;;;34.70;14.60;;;;;;5057979;28;20021;-84
2022/03/15 12:26:30;;;;;;;10.77;8.35;;;34.80;14.70;;;;;;5059797;28;20024;-83
2022/03/15 12:32:19;;;;;;;11.48;8.25;;;35.00;14.40;;;;;;5036452;28;20025;-83
2022/03/15 12:34:51;;;;;;;10.85;7.82;;;35.20;14.30;;;;;;5063806;28;20040;-84